Weather at Plymouth Municipal Airport

Public forecast

Using degrees Fahrenheit for public forecast. Weather courtesy of forecast.io.

Closest aviation weather report (METAR) to Plymouth Municipal Airport

Closest report is Northeastern Regional Airport, 16.1 nm (29.9 km) NE. Retrieved 2020/10/31 15:35 UTC (6 minutes ago):

KEDE 311535Z AUTO 05007KT 10SM SCT028 SCT060 16/10 A3049 RMK AO2 T01600104

Closest aviation forecast (TAF) to Plymouth Municipal Airport

Closest forecast is Pitt Greenville Airport, 32.2 nm (59.7 km) WSW. Retrieved 2020/10/31 12:24 UTC (3 hours ago):

TAF KPGV 311121Z 3112/0112 02006KT P6SM SKC FM311600 04009KT P6SM FEW180 FM010100 00000KT P6SM BKN100 AMD LTD TO CLD VIS AND WIND